createdAt,value
2023-01-28T00:01:42.183Z,3.20
2023-01-28T00:04:11.878Z,3.10
2023-01-28T00:06:39.756Z,3.10
2023-01-28T00:09:07.646Z,3.10
2023-01-28T00:11:35.511Z,3.00
2023-01-28T00:14:05.589Z,3.00
2023-01-28T00:16:33.492Z,2.90
2023-01-28T00:19:01.365Z,2.90
2023-01-28T00:21:30.633Z,2.80
2023-01-28T00:23:58.514Z,2.80
2023-01-28T00:26:26.957Z,2.80
2023-01-28T00:28:54.878Z,2.70
2023-01-28T00:31:24.767Z,2.70
2023-01-28T00:33:54.207Z,2.70
2023-01-28T00:36:23.929Z,2.60
2023-01-28T00:38:53.922Z,2.60
2023-01-28T00:41:23.687Z,2.60
2023-01-28T00:43:52.266Z,2.70
2023-01-28T00:46:21.518Z,2.70
2023-01-28T00:48:49.838Z,2.80
2023-01-28T00:51:20.069Z,2.70
2023-01-28T00:53:48.507Z,2.70
2023-01-28T00:56:19.481Z,2.70
2023-01-28T00:58:48.114Z,2.70
2023-01-28T01:01:18.437Z,2.90
2023-01-28T01:03:46.691Z,3.00
2023-01-28T01:06:17.470Z,2.90
2023-01-28T01:08:50.057Z,2.90
2023-01-28T01:11:20.212Z,2.90
2023-01-28T01:13:52.343Z,3.10
2023-01-28T01:16:20.226Z,3.20
2023-01-28T01:18:48.061Z,3.10
2023-01-28T01:21:18.469Z,3.00
2023-01-28T01:23:47.688Z,2.90
2023-01-28T01:26:16.423Z,2.80
2023-01-28T01:28:46.337Z,2.80
2023-01-28T01:31:16.269Z,2.80
2023-01-28T01:33:45.204Z,2.90
2023-01-28T01:36:14.879Z,2.90
2023-01-28T01:38:42.741Z,3.00
2023-01-28T01:41:14.791Z,2.90
2023-01-28T01:43:52.975Z,3.00
2023-01-28T01:46:24.902Z,2.90
2023-01-28T01:48:54.390Z,3.00
2023-01-28T01:51:27.330Z,3.00
2023-01-28T01:53:57.250Z,3.00
2023-01-28T01:56:29.306Z,3.00
2023-01-28T01:58:59.460Z,3.00
2023-01-28T02:01:31.112Z,3.20
2023-01-28T02:04:05.611Z,3.20
2023-01-28T02:06:34.180Z,3.10
2023-01-28T02:09:03.387Z,3.00
2023-01-28T02:11:34.602Z,3.10
2023-01-28T02:14:05.830Z,3.00
2023-01-28T02:16:34.187Z,2.90
2023-01-28T02:19:02.688Z,2.90
2023-01-28T02:22:04.916Z,2.90
2023-01-28T02:25:07.312Z,2.90
2023-01-28T02:27:40.638Z,3.10
2023-01-28T02:30:15.658Z,3.30
2023-01-28T02:32:47.422Z,3.10
2023-01-28T02:35:21.169Z,3.10
2023-01-28T02:37:55.640Z,3.00
2023-01-28T02:40:29.786Z,2.90
2023-01-28T02:42:57.698Z,2.90
2023-01-28T02:45:50.376Z,2.90
2023-01-28T02:48:18.312Z,2.90
2023-01-28T02:50:53.544Z,2.90
2023-01-28T02:53:44.849Z,3.00
2023-01-28T02:56:20.675Z,3.00
2023-01-28T02:58:56.098Z,3.00
2023-01-28T03:01:29.247Z,3.20
2023-01-28T03:04:00.985Z,3.40
2023-01-28T03:06:35.671Z,3.30
2023-01-28T03:09:24.136Z,3.30
2023-01-28T03:12:13.688Z,3.40
2023-01-28T03:15:00.276Z,3.40
2023-01-28T03:17:52.456Z,3.30
2023-01-28T03:20:39.604Z,3.20
2023-01-28T03:23:29.862Z,3.30
2023-01-28T03:26:18.899Z,3.40
2023-01-28T03:29:06.297Z,3.30
2023-01-28T03:31:52.675Z,3.30
2023-01-28T03:34:40.489Z,3.50
2023-01-28T03:37:08.870Z,3.40
2023-01-28T03:39:37.084Z,3.30
2023-01-28T03:42:07.701Z,3.30
2023-01-28T03:44:51.782Z,3.30
2023-01-28T03:47:20.464Z,3.20
2023-01-28T03:49:52.855Z,3.20
2023-01-28T03:52:22.445Z,3.40
2023-01-28T03:54:51.908Z,3.40
2023-01-28T03:57:21.844Z,3.20
2023-01-28T03:59:50.468Z,3.20
2023-01-28T04:02:19.044Z,3.20
2023-01-28T04:04:47.036Z,3.40
2023-01-28T04:07:16.336Z,3.50
2023-01-28T04:09:44.695Z,3.40
2023-01-28T04:12:12.835Z,3.30
2023-01-28T04:14:40.818Z,3.20
2023-01-28T04:17:10.653Z,3.00
2023-01-28T04:19:39.048Z,3.20
2023-01-28T04:22:07.859Z,3.20
2023-01-28T04:24:37.024Z,3.30
2023-01-28T04:27:04.928Z,3.30
2023-01-28T04:29:32.826Z,3.40
2023-01-28T04:32:00.678Z,3.50
2023-01-28T04:34:28.514Z,3.40
2023-01-28T04:36:56.293Z,3.20
2023-01-28T04:39:24.074Z,3.40
2023-01-28T04:41:53.257Z,3.30
2023-01-28T04:44:21.017Z,3.40
2023-01-28T04:46:48.833Z,3.40
2023-01-28T04:49:16.668Z,3.30
2023-01-28T04:51:44.450Z,3.40
2023-01-28T04:54:12.259Z,3.60
2023-01-28T04:56:40.069Z,3.60
2023-01-28T04:59:09.453Z,3.60
2023-01-28T05:01:37.433Z,3.60
2023-01-28T05:04:06.286Z,3.60
2023-01-28T05:06:34.587Z,3.80
2023-01-28T05:09:02.399Z,3.60
2023-01-28T05:11:30.220Z,3.40
2023-01-28T05:13:58.057Z,3.40
2023-01-28T05:16:27.171Z,3.40
2023-01-28T05:18:54.978Z,3.30
2023-01-28T05:21:22.767Z,3.20
2023-01-28T05:23:50.573Z,3.20
2023-01-28T05:26:18.629Z,3.20
2023-01-28T05:28:46.439Z,3.20
2023-01-28T05:31:14.484Z,3.20
2023-01-28T05:33:43.757Z,3.10
2023-01-28T05:36:11.593Z,3.10
2023-01-28T05:38:39.368Z,3.00
2023-01-28T05:41:07.158Z,3.00
2023-01-28T05:43:34.983Z,2.90
2023-01-28T05:46:02.931Z,2.90
2023-01-28T05:48:30.861Z,2.90
2023-01-28T05:51:00.033Z,2.90
2023-01-28T05:53:27.899Z,2.90
2023-01-28T05:55:55.759Z,2.90
2023-01-28T05:58:24.103Z,3.00
2023-01-28T06:00:51.886Z,2.90
2023-01-28T06:03:19.695Z,3.00
2023-01-28T06:05:48.734Z,2.90
2023-01-28T06:08:17.931Z,2.90
2023-01-28T06:10:45.721Z,2.80
2023-01-28T06:13:13.613Z,2.80
2023-01-28T06:15:41.515Z,2.80
2023-01-28T06:18:09.363Z,2.70
2023-01-28T06:20:37.151Z,2.70
2023-01-28T06:23:04.923Z,2.80
2023-01-28T06:25:34.089Z,2.80
2023-01-28T06:28:01.967Z,2.80
2023-01-28T06:30:29.878Z,2.90
2023-01-28T06:32:57.709Z,2.90
2023-01-28T06:35:25.750Z,3.10
2023-01-28T06:37:53.659Z,3.00
2023-01-28T06:40:22.821Z,3.00
2023-01-28T06:42:51.976Z,3.00
2023-01-28T06:45:19.959Z,2.80
2023-01-28T06:47:48.026Z,2.90
2023-01-28T06:50:16.293Z,2.70
2023-01-28T06:52:44.356Z,2.70
2023-01-28T06:55:12.260Z,2.80
2023-01-28T06:57:40.400Z,2.80
2023-01-28T07:00:13.769Z,2.80
2023-01-28T07:02:41.956Z,2.80
2023-01-28T07:05:10.553Z,2.70
2023-01-28T07:07:41.491Z,2.80
2023-01-28T07:10:10.716Z,2.80
2023-01-28T07:12:38.561Z,2.80
2023-01-28T07:15:07.804Z,2.80
2023-01-28T07:17:36.955Z,2.80
2023-01-28T07:20:06.126Z,2.80
2023-01-28T07:22:33.941Z,2.80
2023-01-28T07:25:02.724Z,2.70
2023-01-28T07:27:30.533Z,2.70
2023-01-28T07:29:58.372Z,2.90
2023-01-28T07:32:27.386Z,3.00
2023-01-28T07:34:56.609Z,3.00
2023-01-28T07:37:24.662Z,3.10
2023-01-28T07:39:52.655Z,3.10
2023-01-28T07:42:20.523Z,3.20
2023-01-28T07:44:48.407Z,3.00
2023-01-28T07:47:16.284Z,2.90
2023-01-28T07:49:44.144Z,2.80
2023-01-28T07:52:13.312Z,2.70
2023-01-28T07:54:41.229Z,2.70
2023-01-28T07:57:10.547Z,2.70
2023-01-28T07:59:38.341Z,2.70
2023-01-28T08:02:06.391Z,2.70
2023-01-28T08:04:34.623Z,2.70
2023-01-28T08:07:04.093Z,2.60
2023-01-28T08:09:34.183Z,2.60
2023-01-28T08:12:04.330Z,2.60
2023-01-28T08:14:32.112Z,2.60
2023-01-28T08:17:00.172Z,2.70
2023-01-28T08:19:28.029Z,2.60
2023-01-28T08:21:55.796Z,2.70
2023-01-28T08:24:23.616Z,2.70
2023-01-28T08:26:52.838Z,2.70
2023-01-28T08:29:20.743Z,2.70
2023-01-28T08:31:48.642Z,2.80
2023-01-28T08:34:16.535Z,2.80
2023-01-28T08:36:44.294Z,2.80
2023-01-28T08:39:12.424Z,2.80
2023-01-28T08:41:40.200Z,2.80
2023-01-28T08:44:09.369Z,2.90
2023-01-28T08:46:37.200Z,2.90
2023-01-28T08:49:05.012Z,2.90
2023-01-28T08:51:32.830Z,2.90
2023-01-28T08:54:00.826Z,2.80
2023-01-28T08:56:28.646Z,2.80
2023-01-28T08:58:56.431Z,2.80
2023-01-28T09:01:26.172Z,2.80
2023-01-28T09:03:54.076Z,2.80
2023-01-28T09:06:21.935Z,2.80
2023-01-28T09:08:49.746Z,2.70
2023-01-28T09:11:17.626Z,2.80
2023-01-28T09:13:45.417Z,2.70
2023-01-28T09:16:13.603Z,2.70
2023-01-28T09:18:42.741Z,2.70
2023-01-28T09:21:10.597Z,2.70
2023-01-28T09:23:39.122Z,2.70
2023-01-28T09:26:07.743Z,2.70
2023-01-28T09:28:35.884Z,2.70
2023-01-28T09:31:04.860Z,2.70
2023-01-28T09:33:33.827Z,2.80
2023-01-28T09:36:04.385Z,2.80
2023-01-28T09:38:34.937Z,2.80
2023-01-28T09:41:09.528Z,2.80
2023-01-28T09:43:51.417Z,2.80
2023-01-28T09:46:19.479Z,2.80
2023-01-28T09:48:49.939Z,2.90
2023-01-28T09:51:41.184Z,2.90
2023-01-28T09:54:27.666Z,2.80
2023-01-28T09:57:05.421Z,2.90
2023-01-28T09:59:36.303Z,2.90
2023-01-28T10:02:23.364Z,2.90
2023-01-28T10:05:00.458Z,2.90
2023-01-28T10:07:38.158Z,2.80
2023-01-28T10:10:13.895Z,2.80
2023-01-28T10:12:59.447Z,2.80
2023-01-28T10:15:48.518Z,2.80
2023-01-28T10:18:18.424Z,2.80
2023-01-28T10:20:50.559Z,2.80
2023-01-28T10:23:25.920Z,2.80
2023-01-28T10:25:56.328Z,2.80
2023-01-28T10:28:27.850Z,2.80
2023-01-28T10:30:55.848Z,2.80
2023-01-28T10:33:29.646Z,2.80
2023-01-28T10:35:57.903Z,2.80
2023-01-28T10:38:28.746Z,2.90
2023-01-28T10:41:00.755Z,2.90
2023-01-28T10:43:33.325Z,2.90
2023-01-28T10:46:06.896Z,3.00
2023-01-28T10:48:38.274Z,3.00
2023-01-28T10:51:06.981Z,2.90
2023-01-28T10:53:37.826Z,3.00
2023-01-28T10:56:08.820Z,2.90
2023-01-28T10:58:48.930Z,2.90
2023-01-28T11:01:17.173Z,2.90
2023-01-28T11:03:55.891Z,2.90
2023-01-28T11:06:28.812Z,2.80
2023-01-28T11:09:00.481Z,2.80
2023-01-28T11:11:30.516Z,2.90
2023-01-28T11:13:58.631Z,2.90
2023-01-28T11:16:27.552Z,2.90
2023-01-28T11:19:00.934Z,2.90
2023-01-28T11:21:30.951Z,2.90
2023-01-28T11:24:02.447Z,2.90
2023-01-28T11:26:33.682Z,3.00
2023-01-28T11:29:01.645Z,3.00
2023-01-28T11:31:29.867Z,3.00
2023-01-28T11:34:00.181Z,3.00
2023-01-28T11:36:29.929Z,3.00
2023-01-28T11:39:01.711Z,3.00
2023-01-28T11:41:33.181Z,3.00
2023-01-28T11:44:06.553Z,2.90
2023-01-28T11:47:09.912Z,2.90
2023-01-28T11:49:48.596Z,2.90
2023-01-28T11:52:23.940Z,2.90
2023-01-28T11:55:00.629Z,2.80
2023-01-28T11:57:37.688Z,2.90
2023-01-28T12:00:23.802Z,2.90
2023-01-28T12:02:55.107Z,2.80
2023-01-28T12:05:37.492Z,2.90
2023-01-28T12:08:10.679Z,2.90
2023-01-28T12:10:49.283Z,2.90
2023-01-28T12:13:30.296Z,2.90
2023-01-28T12:16:14.876Z,2.80
2023-01-28T12:19:04.500Z,2.80
2023-01-28T12:21:46.113Z,2.70
2023-01-28T12:24:24.534Z,2.60
2023-01-28T12:27:01.798Z,2.60
2023-01-28T12:29:36.234Z,2.60
2023-01-28T12:32:31.524Z,2.60
2023-01-28T12:35:44.851Z,2.60
2023-01-28T12:38:17.002Z,2.60
2023-01-28T12:40:58.261Z,2.60
2023-01-28T12:43:43.678Z,2.60
2023-01-28T12:46:19.575Z,2.60
2023-01-28T12:48:52.140Z,2.60
2023-01-28T12:51:24.665Z,2.60
2023-01-28T12:53:58.419Z,2.60
2023-01-28T12:56:30.967Z,2.60
2023-01-28T12:59:04.490Z,2.60
2023-01-28T13:01:39.130Z,2.60
2023-01-28T13:04:11.755Z,2.60
2023-01-28T13:06:42.832Z,2.50
2023-01-28T13:09:17.707Z,2.50
2023-01-28T13:11:46.539Z,2.50
2023-01-28T13:14:16.614Z,2.60
2023-01-28T13:16:44.734Z,2.60
2023-01-28T13:19:24.656Z,2.60
2023-01-28T13:21:53.274Z,2.60
2023-01-28T13:24:33.640Z,2.60
2023-01-28T13:27:13.401Z,2.60
2023-01-28T13:29:43.856Z,2.60
2023-01-28T13:32:32.060Z,2.60
2023-01-28T13:35:02.527Z,2.60
2023-01-28T13:37:33.773Z,2.50
2023-01-28T13:40:09.129Z,2.50
2023-01-28T13:42:37.440Z,2.50
2023-01-28T13:45:25.145Z,2.60
2023-01-28T13:47:56.934Z,2.60
2023-01-28T13:50:32.881Z,2.60
2023-01-28T13:53:05.621Z,2.70
2023-01-28T13:55:44.539Z,2.70
2023-01-28T13:58:52.602Z,2.70
2023-01-28T14:01:51.159Z,2.60
2023-01-28T14:05:00.832Z,2.60
2023-01-28T14:08:04.531Z,2.60
2023-01-28T14:10:39.612Z,2.50
2023-01-28T14:13:34.571Z,2.50
2023-01-28T14:16:45.072Z,2.50
2023-01-28T14:19:15.055Z,2.50
2023-01-28T14:21:42.965Z,2.40
2023-01-28T14:24:17.859Z,2.40
2023-01-28T14:26:56.132Z,2.40
2023-01-28T14:29:36.512Z,2.40
2023-01-28T14:32:07.332Z,2.40
2023-01-28T14:34:38.008Z,2.50
2023-01-28T14:37:10.414Z,2.50
2023-01-28T14:39:45.390Z,2.60
2023-01-28T14:42:19.989Z,2.50
2023-01-28T14:44:50.199Z,2.50
2023-01-28T14:47:39.843Z,2.50
2023-01-28T14:50:23.926Z,2.50
2023-01-28T14:53:14.914Z,2.50
2023-01-28T14:55:50.562Z,2.60
2023-01-28T14:58:21.776Z,2.50
2023-01-28T15:00:56.826Z,2.50
2023-01-28T15:03:25.710Z,2.50
2023-01-28T15:06:06.091Z,2.50
2023-01-28T15:08:35.719Z,2.50
2023-01-28T15:11:04.215Z,2.60
2023-01-28T15:13:37.227Z,2.50
2023-01-28T15:16:08.073Z,2.50
2023-01-28T15:18:38.879Z,2.50
2023-01-28T15:21:08.264Z,2.40
2023-01-28T15:23:38.950Z,2.40
2023-01-28T15:26:08.263Z,2.40
2023-01-28T15:28:39.460Z,2.40
2023-01-28T15:31:08.076Z,2.40
2023-01-28T15:33:35.922Z,2.40
2023-01-28T15:36:04.143Z,2.40
2023-01-28T15:38:33.317Z,2.40
2023-01-28T15:41:03.340Z,2.40
2023-01-28T15:43:34.345Z,2.40
2023-01-28T15:46:02.375Z,2.40
2023-01-28T15:48:33.957Z,2.30
2023-01-28T15:51:04.066Z,2.30
2023-01-28T15:53:37.397Z,2.30
2023-01-28T15:56:08.016Z,2.30
2023-01-28T15:58:41.038Z,2.30
2023-01-28T16:01:20.388Z,2.20
2023-01-28T16:04:00.501Z,2.20
2023-01-28T16:06:32.988Z,2.20
2023-01-28T16:09:04.074Z,2.20
2023-01-28T16:11:37.173Z,2.20
2023-01-28T16:14:05.568Z,2.10
2023-01-28T16:16:35.656Z,2.10
2023-01-28T16:19:07.787Z,2.00
2023-01-28T16:21:38.409Z,2.10
2023-01-28T16:24:22.576Z,2.00
2023-01-28T16:26:57.979Z,2.10
2023-01-28T16:29:30.522Z,2.00
2023-01-28T16:32:29.553Z,2.00
2023-01-28T16:34:57.539Z,1.90
2023-01-28T16:40:01.561Z,1.90
2023-01-28T16:42:31.985Z,1.90
2023-01-28T16:45:00.087Z,1.80
2023-01-28T16:47:28.480Z,1.80
2023-01-28T16:49:56.280Z,1.70
2023-01-28T16:52:24.325Z,1.70
2023-01-28T16:54:52.128Z,1.70
2023-01-28T16:57:23.241Z,1.90
2023-01-28T16:59:51.533Z,1.90
2023-01-28T17:02:19.327Z,1.80
2023-01-28T17:04:47.120Z,1.80
2023-01-28T17:07:14.991Z,1.90
2023-01-28T17:09:42.811Z,1.90
2023-01-28T17:12:10.599Z,2.00
2023-01-28T17:14:39.955Z,2.00
2023-01-28T17:17:07.804Z,2.10
2023-01-28T17:19:35.612Z,2.10
2023-01-28T17:22:03.462Z,2.20
2023-01-28T17:24:31.447Z,2.20
2023-01-28T17:26:59.539Z,2.20
2023-01-28T17:29:27.365Z,2.20
2023-01-28T17:31:56.594Z,2.20
2023-01-28T17:34:24.455Z,2.10
2023-01-28T17:36:52.269Z,2.10
2023-01-28T17:39:20.051Z,2.00
2023-01-28T17:41:48.159Z,2.10
2023-01-28T17:44:15.965Z,2.00
2023-01-28T17:46:43.737Z,2.10
2023-01-28T17:49:13.476Z,2.00
2023-01-28T17:51:41.384Z,1.90
2023-01-28T17:54:11.135Z,1.80
2023-01-28T17:56:39.189Z,1.70
2023-01-28T17:59:07.473Z,1.70
2023-01-28T18:01:37.150Z,1.70
2023-01-28T18:04:05.425Z,1.70
2023-01-28T18:06:36.031Z,1.70
2023-01-28T18:09:04.847Z,1.70
2023-01-28T18:11:32.931Z,1.70
2023-01-28T18:14:00.784Z,1.70
2023-01-28T18:16:28.591Z,1.80
2023-01-28T18:18:56.402Z,1.80
2023-01-28T18:21:39.906Z,1.80
2023-01-28T18:24:19.824Z,1.70
2023-01-28T18:26:47.754Z,1.80
2023-01-28T18:29:20.195Z,1.70
2023-01-28T18:31:48.890Z,1.70
2023-01-28T18:34:17.380Z,1.80
2023-01-28T18:36:45.284Z,1.70
2023-01-28T18:39:13.775Z,1.60
2023-01-28T18:41:43.235Z,1.60
2023-01-28T18:44:12.064Z,1.50
2023-01-28T18:46:40.193Z,1.50
2023-01-28T18:49:08.345Z,1.50
2023-01-28T18:51:36.375Z,1.50
2023-01-28T18:54:08.029Z,1.40
2023-01-28T18:56:37.528Z,1.40
2023-01-28T18:59:10.153Z,1.40
2023-01-28T19:01:38.032Z,1.40
2023-01-28T19:04:05.910Z,1.50
2023-01-28T19:06:33.768Z,1.50
2023-01-28T19:09:04.686Z,1.50
2023-01-28T19:11:32.988Z,1.40
2023-01-28T19:14:00.909Z,1.40
2023-01-28T19:16:30.420Z,1.40
2023-01-28T19:19:00.115Z,1.40
2023-01-28T19:21:29.062Z,1.40
2023-01-28T19:23:58.105Z,1.40
2023-01-28T19:26:27.251Z,1.30
2023-01-28T19:28:56.128Z,1.40
2023-01-28T19:31:25.443Z,1.40
2023-01-28T19:33:57.586Z,1.40
2023-01-28T19:36:26.751Z,1.40
2023-01-28T19:38:54.669Z,1.40
2023-01-28T19:41:22.512Z,1.30
2023-01-28T19:43:50.313Z,1.30
2023-01-28T19:46:18.977Z,1.40
2023-01-28T19:48:47.802Z,1.30
2023-01-28T19:51:17.713Z,1.40
2023-01-28T19:53:46.239Z,1.40
2023-01-28T19:56:16.009Z,1.40
2023-01-28T19:58:46.035Z,1.40
2023-01-28T20:01:16.052Z,1.40
2023-01-28T20:03:44.433Z,1.30
2023-01-28T20:06:14.210Z,1.40
2023-01-28T20:08:43.936Z,1.40
2023-01-28T20:11:13.885Z,1.40
2023-01-28T20:13:44.026Z,1.40
2023-01-28T20:16:16.394Z,1.40
2023-01-28T20:18:44.529Z,1.30
2023-01-28T20:21:12.316Z,1.30
2023-01-28T20:23:40.170Z,1.20
2023-01-28T20:26:09.351Z,1.30
2023-01-28T20:28:37.177Z,1.30
2023-01-28T20:31:06.680Z,1.30
2023-01-28T20:33:35.156Z,1.40
2023-01-28T20:36:03.836Z,1.50
2023-01-28T20:38:31.685Z,1.60
2023-01-28T20:40:59.513Z,1.60
2023-01-28T20:43:28.822Z,1.70
2023-01-28T20:46:03.531Z,1.60
2023-01-28T20:48:31.434Z,1.60
2023-01-28T20:51:05.889Z,1.50
2023-01-28T20:53:34.003Z,1.60
2023-01-28T20:56:02.343Z,1.60
2023-01-28T20:58:33.178Z,1.70
2023-01-28T21:01:01.692Z,1.70
2023-01-28T21:03:29.698Z,1.60
2023-01-28T21:05:57.765Z,1.60
2023-01-28T21:08:25.581Z,1.60
2023-01-28T21:10:53.499Z,1.60
2023-01-28T21:13:21.289Z,1.60
2023-01-28T21:15:55.091Z,1.70
2023-01-28T21:18:23.321Z,1.80
2023-01-28T21:20:53.496Z,1.80
2023-01-28T21:23:23.404Z,1.80
2023-01-28T21:25:52.337Z,1.90
2023-01-28T21:28:21.225Z,1.90
2023-01-28T21:30:49.457Z,1.90
2023-01-28T21:33:18.585Z,1.80
2023-01-28T21:35:46.376Z,1.90
2023-01-28T21:38:14.904Z,2.00
2023-01-28T21:40:42.713Z,1.90
2023-01-28T21:43:12.506Z,1.90
2023-01-28T21:45:41.182Z,2.00
2023-01-28T21:48:08.973Z,1.90
2023-01-28T21:50:58.179Z,1.80
2023-01-28T21:53:25.978Z,1.70
2023-01-28T21:55:53.762Z,1.70
2023-01-28T21:58:39.219Z,1.70
2023-01-28T22:01:10.428Z,1.70
2023-01-28T22:03:38.192Z,1.70
2023-01-28T22:06:07.879Z,1.60
2023-01-28T22:08:36.112Z,1.70
2023-01-28T22:11:04.780Z,1.70
2023-01-28T22:13:33.288Z,1.70
2023-01-28T22:16:01.469Z,1.60
2023-01-28T22:18:29.309Z,1.70
2023-01-28T22:20:58.787Z,1.70
2023-01-28T22:23:28.085Z,1.70
2023-01-28T22:25:56.695Z,1.70
2023-01-28T22:28:25.521Z,1.60
2023-01-28T22:30:53.560Z,1.70
2023-01-28T22:33:21.902Z,1.70
2023-01-28T22:35:50.628Z,1.70
2023-01-28T22:38:18.538Z,1.60
2023-01-28T22:40:47.673Z,1.60
2023-01-28T22:43:15.482Z,1.60
2023-01-28T22:45:43.278Z,1.60
2023-01-28T22:48:11.078Z,1.60
2023-01-28T22:50:38.873Z,1.60
2023-01-28T22:53:06.704Z,1.50
2023-01-28T22:55:34.661Z,1.50
2023-01-28T22:58:05.420Z,1.30
2023-01-28T23:00:33.285Z,1.40
2023-01-28T23:03:01.703Z,1.40
2023-01-28T23:05:29.508Z,1.40
2023-01-28T23:08:10.769Z,1.30
2023-01-28T23:10:39.509Z,1.40
2023-01-28T23:13:09.070Z,1.50
2023-01-28T23:15:59.956Z,1.60
2023-01-28T23:18:45.427Z,1.60
2023-01-28T23:21:37.030Z,1.50
2023-01-28T23:24:20.855Z,1.50
2023-01-28T23:26:52.738Z,1.50
2023-01-28T23:29:23.928Z,1.50
2023-01-28T23:31:54.929Z,1.60
2023-01-28T23:34:24.243Z,1.70
2023-01-28T23:36:52.122Z,1.70
2023-01-28T23:39:20.228Z,1.70
2023-01-28T23:41:48.094Z,1.70
2023-01-28T23:44:18.090Z,1.60
2023-01-28T23:46:47.551Z,1.60
2023-01-28T23:49:15.347Z,1.60
2023-01-28T23:51:43.228Z,1.80
2023-01-28T23:54:11.031Z,2.20
2023-01-28T23:56:39.192Z,2.70
2023-01-28T23:59:07.053Z,2.80
